createdAt,value
2022-12-23T00:02:38.291Z,24.23
2022-12-23T00:05:41.428Z,24.20
2022-12-23T00:08:44.490Z,22.48
2022-12-23T00:12:05.484Z,24.23
2022-12-23T00:15:08.909Z,25.52
2022-12-23T00:18:11.493Z,23.42
2022-12-23T00:21:16.764Z,23.23
2022-12-23T00:24:19.423Z,22.33
2022-12-23T00:27:21.728Z,21.37
2022-12-23T00:30:24.524Z,22.17
2022-12-23T00:33:29.624Z,23.23
2022-12-23T00:36:32.438Z,22.27
2022-12-23T00:39:55.174Z,23.55
2022-12-23T00:42:59.719Z,25.37
2022-12-23T00:46:02.019Z,24.80
2022-12-23T00:49:23.770Z,22.23
2022-12-23T00:52:26.074Z,22.85
2022-12-23T00:55:28.671Z,23.40
2022-12-23T00:58:32.004Z,23.20
2022-12-23T01:01:53.821Z,23.35
2022-12-23T01:05:14.967Z,22.70
2022-12-23T01:08:17.590Z,23.75
2022-12-23T01:11:19.897Z,24.12
2022-12-23T01:14:22.857Z,24.12
2022-12-23T01:17:25.287Z,23.75
2022-12-23T01:20:27.971Z,22.85
2022-12-23T01:23:30.330Z,23.48
2022-12-23T01:26:33.015Z,25.20
2022-12-23T01:29:35.335Z,24.00
2022-12-23T01:32:38.309Z,23.90
2022-12-23T01:35:40.630Z,24.25
2022-12-23T01:38:43.872Z,24.52
2022-12-23T01:42:05.632Z,24.58
2022-12-23T01:45:21.128Z,24.95
2022-12-23T01:48:27.650Z,24.98
2022-12-23T01:51:30.477Z,24.25
2022-12-23T01:54:33.533Z,24.92
2022-12-23T01:57:39.328Z,25.17
2022-12-23T02:01:01.214Z,25.40
2022-12-23T02:04:16.048Z,25.77
2022-12-23T02:07:37.697Z,26.73
2022-12-23T02:11:15.360Z,25.67
2022-12-23T02:14:51.618Z,25.35
2022-12-23T02:17:56.838Z,26.35
2022-12-23T02:21:24.001Z,26.95
2022-12-23T02:24:35.779Z,27.95
2022-12-23T02:28:08.916Z,26.92
2022-12-23T02:31:39.402Z,28.95
2022-12-23T02:35:11.016Z,28.45
2022-12-23T02:38:23.639Z,29.20
2022-12-23T02:42:11.058Z,30.02
2022-12-23T02:45:19.793Z,29.95
2022-12-23T02:48:32.126Z,29.85
2022-12-23T02:51:40.628Z,29.23
2022-12-23T02:54:51.815Z,30.33
2022-12-23T02:57:55.793Z,30.80
2022-12-23T03:01:00.622Z,31.77
2022-12-23T03:04:03.322Z,32.83
2022-12-23T03:07:08.069Z,32.90
2022-12-23T03:10:20.740Z,31.08
2022-12-23T03:13:41.529Z,31.05
2022-12-23T03:17:32.258Z,32.72
2022-12-23T03:20:42.373Z,32.63
2022-12-23T03:23:55.724Z,34.47
2022-12-23T03:27:08.635Z,32.80
2022-12-23T03:30:15.051Z,34.00
2022-12-23T03:33:24.117Z,33.65
2022-12-23T03:36:32.590Z,35.20
2022-12-23T03:39:47.069Z,35.13
2022-12-23T03:42:56.799Z,33.95
2022-12-23T03:46:13.249Z,34.03
2022-12-23T03:49:23.776Z,35.85
2022-12-23T03:52:41.633Z,37.80
2022-12-23T03:55:51.733Z,35.47
2022-12-23T03:59:17.493Z,36.03
2022-12-23T04:02:46.741Z,36.80
2022-12-23T04:05:58.104Z,35.67
2022-12-23T04:09:01.989Z,35.47
2022-12-23T04:12:04.960Z,35.38
2022-12-23T04:15:12.527Z,36.65
2022-12-23T04:18:16.461Z,36.65
2022-12-23T04:21:18.810Z,33.83
2022-12-23T04:24:21.548Z,37.30
2022-12-23T04:27:23.870Z,35.90
2022-12-23T04:30:31.608Z,36.20
2022-12-23T04:33:36.728Z,35.03
2022-12-23T04:36:39.306Z,35.45
2022-12-23T04:39:41.732Z,36.50
2022-12-23T04:42:44.537Z,31.80
2022-12-23T04:45:51.352Z,35.58
2022-12-23T04:48:53.969Z,35.35
2022-12-23T04:51:56.344Z,31.05
2022-12-23T04:54:59.147Z,33.17
2022-12-23T04:58:01.450Z,30.80
2022-12-23T05:04:12.880Z,30.90
2022-12-23T05:07:15.595Z,32.30
2022-12-23T05:10:18.073Z,30.95
2022-12-23T05:13:20.771Z,28.27
2022-12-23T05:16:23.278Z,29.12
2022-12-23T05:19:25.929Z,30.75
2022-12-23T05:22:28.227Z,27.37
2022-12-23T05:25:33.948Z,27.75
2022-12-23T05:28:36.311Z,23.90
2022-12-23T05:31:38.963Z,23.65
2022-12-23T05:34:41.331Z,25.67
2022-12-23T05:37:43.916Z,26.70
2022-12-23T05:40:46.485Z,28.38
2022-12-23T05:43:49.531Z,26.37
2022-12-23T05:46:51.866Z,28.95
2022-12-23T05:49:54.418Z,31.80
2022-12-23T05:52:57.751Z,31.05
2022-12-23T05:56:04.585Z,28.75
2022-12-23T05:59:06.958Z,28.48
2022-12-23T06:02:09.819Z,27.20
2022-12-23T06:05:13.327Z,24.40
2022-12-23T06:08:15.702Z,27.43
2022-12-23T06:11:18.329Z,24.48
2022-12-23T06:14:26.884Z,22.85
2022-12-23T06:17:31.510Z,24.08
2022-12-23T06:20:33.897Z,20.37
2022-12-23T06:23:36.655Z,23.05
2022-12-23T06:26:39.065Z,23.33
2022-12-23T06:29:42.274Z,23.42
2022-12-23T06:32:44.602Z,23.95
2022-12-23T06:35:47.505Z,23.77
2022-12-23T06:38:49.850Z,22.48
2022-12-23T06:41:52.691Z,22.30
2022-12-23T06:44:55.076Z,21.25
2022-12-23T06:47:57.681Z,21.50
2022-12-23T06:50:59.979Z,21.80
2022-12-23T06:54:02.692Z,22.33
2022-12-23T06:57:05.012Z,22.17
2022-12-23T07:00:09.029Z,19.83
2022-12-23T07:03:11.566Z,19.37
2022-12-23T07:06:14.981Z,19.62
2022-12-23T07:09:17.443Z,21.55
2022-12-23T07:12:20.147Z,21.20
2022-12-23T07:15:22.441Z,19.00
2022-12-23T07:18:25.556Z,20.50
2022-12-23T07:21:29.807Z,20.73
2022-12-23T07:24:32.770Z,21.12
2022-12-23T07:27:35.030Z,20.62
2022-12-23T07:30:37.653Z,20.25
2022-12-23T07:33:40.029Z,19.10
2022-12-23T07:36:42.653Z,19.60
2022-12-23T07:39:44.989Z,20.17
2022-12-23T07:42:54.419Z,18.87
2022-12-23T07:46:00.340Z,17.55
2022-12-23T07:49:03.753Z,20.10
2022-12-23T07:52:06.158Z,19.20
2022-12-23T07:55:09.143Z,20.37
2022-12-23T07:58:11.451Z,20.83
2022-12-23T08:01:14.156Z,20.90
2022-12-23T08:04:16.992Z,20.17
2022-12-23T08:07:19.474Z,18.45
2022-12-23T08:10:22.595Z,18.33
2022-12-23T08:13:25.323Z,19.15
2022-12-23T08:16:28.032Z,18.42
2022-12-23T08:19:30.363Z,18.23
2022-12-23T08:22:33.064Z,19.12
2022-12-23T08:25:35.440Z,20.08
2022-12-23T08:28:39.830Z,19.65
2022-12-23T08:31:42.217Z,19.77
2022-12-23T08:34:44.811Z,20.40
2022-12-23T08:37:47.141Z,19.92
2022-12-23T08:40:49.773Z,22.27
2022-12-23T08:43:53.024Z,20.25
2022-12-23T08:46:56.158Z,20.62
2022-12-23T08:49:59.260Z,21.08
2022-12-23T08:53:01.898Z,20.85
2022-12-23T08:56:06.988Z,21.55
2022-12-23T08:59:18.791Z,21.12
2022-12-23T09:02:23.328Z,21.97
2022-12-23T09:05:26.104Z,21.87
2022-12-23T09:08:28.433Z,21.40
2022-12-23T09:11:31.805Z,22.73
2022-12-23T09:14:34.168Z,23.73
2022-12-23T09:17:36.820Z,22.05
2022-12-23T09:20:39.935Z,23.87
2022-12-23T09:23:43.138Z,23.05
2022-12-23T09:26:46.085Z,23.58
2022-12-23T09:29:48.746Z,22.37
2022-12-23T09:32:51.436Z,22.85
2022-12-23T09:35:59.917Z,23.77
2022-12-23T09:39:02.469Z,21.98
2022-12-23T09:42:43.693Z,22.42
2022-12-23T09:46:04.760Z,22.20
2022-12-23T09:49:16.687Z,21.92
2022-12-23T09:52:40.624Z,20.30
2022-12-23T09:55:58.252Z,21.70
2022-12-23T09:59:08.489Z,20.77
2022-12-23T10:02:32.639Z,19.83
2022-12-23T10:06:14.350Z,20.65
2022-12-23T10:09:18.728Z,19.90
2022-12-23T10:12:39.659Z,19.30
2022-12-23T10:15:47.942Z,20.40
2022-12-23T10:19:01.083Z,20.55
2022-12-23T10:22:11.966Z,19.77
2022-12-23T10:25:37.482Z,20.70
2022-12-23T10:28:39.967Z,19.27
2022-12-23T10:32:17.598Z,20.55
2022-12-23T10:35:37.269Z,19.45
2022-12-23T10:39:05.126Z,19.45
2022-12-23T10:42:28.238Z,20.15
2022-12-23T10:45:54.441Z,20.92
2022-12-23T10:49:22.295Z,20.85
2022-12-23T10:52:29.928Z,20.55
2022-12-23T10:55:35.819Z,21.62
2022-12-23T10:58:44.296Z,23.77
2022-12-23T11:01:53.084Z,22.45
2022-12-23T11:04:56.417Z,22.23
2022-12-23T11:07:59.134Z,24.17
2022-12-23T11:11:02.157Z,23.90
2022-12-23T11:14:04.773Z,22.87
2022-12-23T11:17:29.157Z,21.15
2022-12-23T11:20:33.000Z,22.35
2022-12-23T11:26:39.577Z,20.70
2022-12-23T11:29:49.675Z,21.20
2022-12-23T11:32:52.499Z,23.27
2022-12-23T11:36:29.032Z,22.20
2022-12-23T11:39:34.644Z,22.80
2022-12-23T11:42:41.646Z,22.92
2022-12-23T11:45:44.054Z,23.60
2022-12-23T11:48:54.345Z,22.40
2022-12-23T11:52:06.388Z,23.10
2022-12-23T11:55:24.997Z,24.48
2022-12-23T11:58:30.001Z,24.23
2022-12-23T12:01:33.173Z,22.77
2022-12-23T12:04:36.503Z,23.97
2022-12-23T12:07:43.259Z,25.27
2022-12-23T12:10:46.183Z,24.40
2022-12-23T12:13:50.589Z,24.37
2022-12-23T12:17:14.267Z,25.20
2022-12-23T12:20:29.225Z,23.98
2022-12-23T12:23:40.427Z,23.42
2022-12-23T12:26:44.580Z,23.10
2022-12-23T12:30:08.189Z,24.30
2022-12-23T12:33:28.106Z,25.67
2022-12-23T12:36:36.646Z,24.02
2022-12-23T12:40:01.509Z,26.62
2022-12-23T12:43:22.578Z,25.05
2022-12-23T12:46:25.009Z,24.48
2022-12-23T12:49:37.253Z,25.83
2022-12-23T12:52:42.252Z,25.30
2022-12-23T12:56:04.060Z,23.33
2022-12-23T12:59:06.413Z,25.20
2022-12-23T13:02:46.631Z,24.40
2022-12-23T13:05:54.886Z,25.23
2022-12-23T13:09:23.697Z,26.27
2022-12-23T13:13:13.909Z,24.48
2022-12-23T13:16:35.077Z,24.90
2022-12-23T13:20:32.767Z,25.17
2022-12-23T13:23:46.117Z,23.92
2022-12-23T13:27:39.530Z,25.15
2022-12-23T13:31:08.532Z,23.95
2022-12-23T13:34:36.065Z,27.58
2022-12-23T13:37:49.168Z,24.70
2022-12-23T13:41:12.859Z,24.85
2022-12-23T13:44:18.905Z,26.02
2022-12-23T13:47:49.114Z,26.30
2022-12-23T13:51:00.975Z,24.85
2022-12-23T13:54:15.675Z,24.85
2022-12-23T13:57:58.322Z,23.75
2022-12-23T14:01:09.981Z,23.20
2022-12-23T14:04:57.193Z,24.90
2022-12-23T14:08:20.800Z,25.00
2022-12-23T14:11:28.491Z,26.40
2022-12-23T14:15:25.043Z,24.20
2022-12-23T14:18:48.354Z,22.40
2022-12-23T14:22:21.770Z,24.83
2022-12-23T14:25:41.243Z,23.30
2022-12-23T14:28:56.453Z,25.00
2022-12-23T14:31:59.414Z,23.10
2022-12-23T14:35:20.337Z,24.48
2022-12-23T14:38:29.221Z,24.60
2022-12-23T14:41:38.961Z,24.08
2022-12-23T14:44:43.715Z,23.58
2022-12-23T14:47:46.579Z,24.17
2022-12-23T14:51:00.125Z,25.03
2022-12-23T14:54:02.361Z,25.23
2022-12-23T14:57:18.047Z,24.20
2022-12-23T15:00:20.405Z,23.95
2022-12-23T15:03:23.670Z,23.65
2022-12-23T15:06:35.311Z,25.15
2022-12-23T15:09:48.513Z,25.33
2022-12-23T15:12:58.032Z,23.85
2022-12-23T15:16:01.949Z,24.55
2022-12-23T15:19:24.380Z,24.27
2022-12-23T15:22:32.620Z,22.60
2022-12-23T15:25:40.725Z,24.58
2022-12-23T15:28:44.160Z,24.95
2022-12-23T15:31:50.619Z,23.60
2022-12-23T15:35:00.030Z,25.90
2022-12-23T15:38:03.281Z,24.20
2022-12-23T15:41:14.928Z,25.08
2022-12-23T15:44:25.897Z,23.85
2022-12-23T15:47:31.277Z,23.90
2022-12-23T15:50:41.768Z,24.02
2022-12-23T15:53:47.253Z,25.85
2022-12-23T15:56:53.467Z,23.95
2022-12-23T15:59:58.558Z,24.08
2022-12-23T16:03:03.330Z,23.75
2022-12-23T16:06:17.058Z,26.08
2022-12-23T16:09:19.337Z,24.23
2022-12-23T16:12:25.919Z,24.33
2022-12-23T16:15:31.100Z,25.73
2022-12-23T16:18:46.891Z,26.30
2022-12-23T16:21:49.960Z,24.60
2022-12-23T16:25:24.831Z,23.67
2022-12-23T16:28:38.568Z,25.23
2022-12-23T16:31:48.236Z,23.70
2022-12-23T16:34:55.178Z,25.80
2022-12-23T16:38:11.283Z,24.83
2022-12-23T16:41:14.394Z,25.45
2022-12-23T16:44:17.238Z,26.10
2022-12-23T16:47:20.134Z,25.58
2022-12-23T16:50:23.198Z,27.70
2022-12-23T16:53:25.740Z,26.83
2022-12-23T16:56:32.045Z,25.77
2022-12-23T16:59:34.386Z,26.25
2022-12-23T17:02:37.147Z,26.02
2022-12-23T17:05:39.574Z,25.80
2022-12-23T17:08:42.981Z,25.98
2022-12-23T17:11:53.202Z,26.63
2022-12-23T17:14:55.799Z,25.77
2022-12-23T17:17:58.374Z,26.23
2022-12-23T17:21:04.186Z,27.00
2022-12-23T17:24:22.467Z,24.45
2022-12-23T17:27:25.356Z,24.83
2022-12-23T17:30:33.526Z,24.35
2022-12-23T17:33:36.406Z,25.23
2022-12-23T17:36:41.912Z,24.73
2022-12-23T17:39:47.586Z,23.75
2022-12-23T17:42:53.559Z,24.08
2022-12-23T17:45:56.308Z,24.95
2022-12-23T17:48:59.308Z,24.95
2022-12-23T17:52:02.175Z,26.58
2022-12-23T17:55:09.881Z,24.40
2022-12-23T17:58:13.988Z,24.92
2022-12-23T18:01:26.403Z,23.90
2022-12-23T18:04:29.063Z,25.30
2022-12-23T18:07:31.363Z,25.23
2022-12-23T18:10:39.137Z,24.60
2022-12-23T18:13:41.494Z,25.15
2022-12-23T18:16:44.232Z,25.23
2022-12-23T18:19:46.641Z,25.45
2022-12-23T18:22:53.120Z,27.13
2022-12-23T18:25:56.740Z,26.05
2022-12-23T18:28:59.336Z,25.77
2022-12-23T18:32:01.786Z,25.88
2022-12-23T18:35:15.927Z,25.60
2022-12-23T18:38:18.475Z,24.85
2022-12-23T18:41:21.856Z,24.52
2022-12-23T18:44:24.463Z,25.33
2022-12-23T18:47:27.083Z,26.48
2022-12-23T18:50:30.871Z,27.23
2022-12-23T18:56:35.717Z,23.23
2022-12-23T18:59:39.750Z,25.12
2022-12-23T19:02:43.205Z,25.15
2022-12-23T19:05:47.109Z,25.23
2022-12-23T19:08:49.438Z,25.80
2022-12-23T19:11:53.922Z,25.58
2022-12-23T19:14:56.356Z,24.63
2022-12-23T19:17:59.033Z,24.00
2022-12-23T19:21:04.624Z,25.27
2022-12-23T19:24:07.289Z,24.12
2022-12-23T19:27:09.788Z,25.77
2022-12-23T19:30:15.909Z,25.62
2022-12-23T19:33:18.307Z,25.52
2022-12-23T19:36:25.488Z,23.83
2022-12-23T19:39:31.315Z,24.80
2022-12-23T19:42:36.658Z,26.83
2022-12-23T19:45:39.095Z,25.73
2022-12-23T19:48:42.122Z,24.85
2022-12-23T19:51:44.469Z,26.73
2022-12-23T19:54:47.351Z,24.45
2022-12-23T19:57:49.653Z,26.30
2022-12-23T20:00:52.353Z,24.67
2022-12-23T20:03:56.339Z,28.27
2022-12-23T20:06:58.681Z,24.27
2022-12-23T20:10:01.291Z,24.73
2022-12-23T20:13:03.580Z,25.42
2022-12-23T20:16:07.502Z,25.05
2022-12-23T20:19:10.473Z,25.08
2022-12-23T20:22:13.227Z,25.88
2022-12-23T20:25:15.677Z,22.80
2022-12-23T20:28:18.559Z,23.02
2022-12-23T20:31:24.036Z,24.45
2022-12-23T20:34:26.684Z,23.55
2022-12-23T20:37:29.000Z,24.15
2022-12-23T20:40:31.717Z,23.73
2022-12-23T20:43:34.811Z,24.50
2022-12-23T20:46:37.506Z,24.02
2022-12-23T20:49:39.962Z,23.02
2022-12-23T20:52:42.543Z,22.58
2022-12-23T20:55:45.071Z,22.05
2022-12-23T20:59:01.565Z,23.48
2022-12-23T21:02:04.035Z,24.27
2022-12-23T21:05:07.196Z,22.70
2022-12-23T21:08:09.612Z,21.95
2022-12-23T21:11:12.757Z,21.65
2022-12-23T21:14:16.031Z,21.85
2022-12-23T21:17:18.730Z,22.58
2022-12-23T21:20:21.086Z,22.30
2022-12-23T21:23:23.710Z,21.50
2022-12-23T21:26:28.349Z,27.62
2022-12-23T21:29:30.998Z,23.05
2022-12-23T21:32:33.388Z,22.40
2022-12-23T21:35:36.066Z,22.30
2022-12-23T21:38:41.917Z,21.08
2022-12-23T21:41:45.869Z,22.52
2022-12-23T21:44:48.311Z,22.90
2022-12-23T21:47:50.992Z,22.60
2022-12-23T21:50:53.789Z,21.77
2022-12-23T21:53:58.400Z,22.43
2022-12-23T21:57:00.762Z,21.10
2022-12-23T22:00:04.025Z,21.83
2022-12-23T22:03:06.754Z,21.83
2022-12-23T22:06:30.084Z,20.85
2022-12-23T22:09:32.744Z,21.20
2022-12-23T22:12:35.386Z,21.90
2022-12-23T22:15:43.805Z,21.67
2022-12-23T22:18:47.480Z,21.85
2022-12-23T22:21:49.805Z,23.42
2022-12-23T22:24:53.454Z,21.83
2022-12-23T22:27:55.777Z,21.77
2022-12-23T22:31:06.851Z,21.52
2022-12-23T22:34:13.067Z,20.83
2022-12-23T22:37:16.428Z,19.83
2022-12-23T22:40:18.796Z,20.50
2022-12-23T22:43:24.344Z,20.33
2022-12-23T22:46:27.719Z,19.58
2022-12-23T22:49:30.540Z,20.08
2022-12-23T22:52:32.883Z,18.92
2022-12-23T22:55:35.505Z,18.25
2022-12-23T22:58:37.881Z,18.50
2022-12-23T23:01:40.521Z,18.83
2022-12-23T23:04:43.004Z,18.17
2022-12-23T23:07:45.703Z,18.37
2022-12-23T23:10:48.055Z,18.05
2022-12-23T23:13:50.894Z,17.60
2022-12-23T23:16:53.369Z,17.92
2022-12-23T23:19:56.048Z,18.15
2022-12-23T23:22:58.343Z,17.98
2022-12-23T23:26:01.136Z,19.98
2022-12-23T23:29:03.512Z,19.70
2022-12-23T23:32:07.597Z,21.42
2022-12-23T23:35:11.075Z,21.02
2022-12-23T23:41:22.488Z,19.80
2022-12-23T23:44:26.077Z,21.17
2022-12-23T23:47:28.391Z,21.08
2022-12-23T23:50:30.959Z,20.60
2022-12-23T23:53:33.426Z,19.77
2022-12-23T23:56:38.559Z,19.85
2022-12-23T23:59:41.732Z,20.37
